createdAt,value
2018-08-19T00:02:08.314Z,13.70
2018-08-19T00:04:37.611Z,13.53
2018-08-19T00:07:06.094Z,13.67
2018-08-19T00:09:34.877Z,13.47
2018-08-19T00:12:03.406Z,11.47
2018-08-19T00:14:35.086Z,11.87
2018-08-19T00:17:04.118Z,11.90
2018-08-19T00:19:33.499Z,11.70
2018-08-19T00:22:01.663Z,13.07
2018-08-19T00:24:29.804Z,11.60
2018-08-19T00:26:57.964Z,11.37
2018-08-19T00:29:31.566Z,10.90
2018-08-19T00:32:00.028Z,11.07
2018-08-19T00:34:34.130Z,11.93
2018-08-19T00:37:05.141Z,11.70
2018-08-19T00:39:33.430Z,11.27
2018-08-19T00:42:02.757Z,12.07
2018-08-19T00:44:31.660Z,11.60
2018-08-19T00:46:59.817Z,12.07
2018-08-19T00:49:27.990Z,12.07
2018-08-19T00:52:02.318Z,11.17
2018-08-19T00:54:32.426Z,12.60
2018-08-19T00:57:01.122Z,10.30
2018-08-19T00:59:30.518Z,12.07
2018-08-19T01:01:58.906Z,12.03
2018-08-19T01:04:27.577Z,11.03
2018-08-19T01:06:56.774Z,10.33
2018-08-19T01:09:26.481Z,9.83
2018-08-19T01:11:54.626Z,11.57
2018-08-19T01:14:22.777Z,12.47
2018-08-19T01:16:50.917Z,12.37
2018-08-19T01:19:19.294Z,12.37
2018-08-19T01:21:49.250Z,12.90
2018-08-19T01:24:17.404Z,12.07
2018-08-19T01:26:45.565Z,11.80
2018-08-19T01:29:14.050Z,10.83
2018-08-19T01:31:42.206Z,12.03
2018-08-19T01:34:13.145Z,11.60
2018-08-19T01:36:41.310Z,11.43
2018-08-19T01:39:11.337Z,12.53
2018-08-19T01:41:40.350Z,12.60
2018-08-19T01:44:12.205Z,10.83
2018-08-19T01:46:45.694Z,11.47
2018-08-19T01:49:13.853Z,11.27
2018-08-19T01:51:43.269Z,12.80
2018-08-19T01:54:19.442Z,13.03
2018-08-19T01:56:53.838Z,13.00
2018-08-19T01:59:22.070Z,12.17
2018-08-19T02:01:51.872Z,11.97
2018-08-19T02:04:20.409Z,11.20
2018-08-19T02:06:48.546Z,11.67
2018-08-19T02:09:17.893Z,11.43
2018-08-19T02:11:48.834Z,11.50
2018-08-19T02:14:17.830Z,14.23
2018-08-19T02:16:47.630Z,11.33
2018-08-19T02:19:15.785Z,10.53
2018-08-19T02:21:44.495Z,10.50
2018-08-19T02:24:13.178Z,10.17
2018-08-19T02:26:41.329Z,10.23
2018-08-19T02:29:26.256Z,11.50
2018-08-19T02:31:59.905Z,11.90
2018-08-19T02:34:35.254Z,10.17
2018-08-19T02:37:04.457Z,9.73
2018-08-19T02:39:33.977Z,12.53
2018-08-19T02:42:02.130Z,11.10
2018-08-19T02:44:30.318Z,11.47
2018-08-19T02:46:58.589Z,9.47
2018-08-19T02:49:26.733Z,9.40
2018-08-19T02:51:54.882Z,10.13
2018-08-19T02:54:23.025Z,10.27
2018-08-19T02:56:51.174Z,8.60
2018-08-19T02:59:19.329Z,10.40
2018-08-19T03:01:47.579Z,9.10
2018-08-19T03:04:15.722Z,10.13
2018-08-19T03:06:43.862Z,9.00
2018-08-19T03:09:12.064Z,9.57
2018-08-19T03:11:40.614Z,9.17
2018-08-19T03:14:08.787Z,10.00
2018-08-19T03:16:36.927Z,8.97
2018-08-19T03:19:05.114Z,8.70
2018-08-19T03:21:33.245Z,9.87
2018-08-19T03:24:01.390Z,9.33
2018-08-19T03:26:29.885Z,11.67
2018-08-19T03:28:59.998Z,9.60
2018-08-19T03:31:28.141Z,12.20
2018-08-19T03:33:56.274Z,8.97
2018-08-19T03:36:24.393Z,8.10
2018-08-19T03:38:54.656Z,8.63
2018-08-19T03:41:22.770Z,8.07
2018-08-19T03:43:59.000Z,8.23
2018-08-19T03:46:28.245Z,12.77
2018-08-19T03:48:56.373Z,10.03
2018-08-19T03:51:24.505Z,8.63
2018-08-19T03:53:52.682Z,8.93
2018-08-19T03:56:27.234Z,9.00
2018-08-19T03:58:57.950Z,7.70
2018-08-19T04:01:35.210Z,8.67
2018-08-19T04:04:03.356Z,10.27
2018-08-19T04:06:31.502Z,9.10
2018-08-19T04:08:59.714Z,7.73
2018-08-19T04:11:27.893Z,9.10
2018-08-19T04:13:56.025Z,9.17
2018-08-19T04:16:24.146Z,9.53
2018-08-19T04:18:56.571Z,8.73
2018-08-19T04:21:24.704Z,8.60
2018-08-19T04:23:52.862Z,9.80
2018-08-19T04:26:20.995Z,13.63
2018-08-19T04:28:49.118Z,9.87
2018-08-19T04:31:23.795Z,10.57
2018-08-19T04:33:52.410Z,8.70
2018-08-19T04:36:22.801Z,10.03
2018-08-19T04:38:50.941Z,9.40
2018-08-19T04:41:19.159Z,9.73
2018-08-19T04:43:48.037Z,10.50
2018-08-19T04:46:16.186Z,9.07
2018-08-19T04:48:44.872Z,8.93
2018-08-19T04:51:13.010Z,9.50
2018-08-19T04:53:41.149Z,9.90
2018-08-19T04:56:09.337Z,9.43
2018-08-19T04:58:37.427Z,8.50
2018-08-19T05:01:05.589Z,9.70
2018-08-19T05:03:33.749Z,9.93
2018-08-19T05:06:01.964Z,8.53
2018-08-19T05:08:30.332Z,10.43
2018-08-19T05:10:58.254Z,8.83
2018-08-19T05:13:28.033Z,9.47
2018-08-19T05:15:56.405Z,9.57
2018-08-19T05:18:24.549Z,9.13
2018-08-19T05:20:58.226Z,8.87
2018-08-19T05:23:26.358Z,10.17
2018-08-19T05:25:57.145Z,11.17
2018-08-19T05:28:25.368Z,10.40
2018-08-19T05:30:53.493Z,11.93
2018-08-19T05:33:21.653Z,12.13
2018-08-19T05:35:49.900Z,10.17
2018-08-19T05:38:18.038Z,11.23
2018-08-19T05:40:51.618Z,9.60
2018-08-19T05:43:19.947Z,9.60
2018-08-19T05:45:54.160Z,8.77
2018-08-19T05:48:22.384Z,8.67
2018-08-19T05:50:50.561Z,9.57
2018-08-19T05:53:18.794Z,8.70
2018-08-19T05:55:46.942Z,9.10
2018-08-19T05:58:15.106Z,8.13
2018-08-19T06:00:44.677Z,8.63
2018-08-19T06:03:12.821Z,8.13
2018-08-19T06:05:40.991Z,8.33
2018-08-19T06:08:11.238Z,8.57
2018-08-19T06:10:39.937Z,8.00
2018-08-19T06:13:09.070Z,9.03
2018-08-19T06:15:37.340Z,8.60
2018-08-19T06:18:05.585Z,8.13
2018-08-19T06:20:33.959Z,8.80
2018-08-19T06:23:02.189Z,8.07
2018-08-19T06:25:30.482Z,7.57
2018-08-19T06:27:59.200Z,7.60
2018-08-19T06:30:27.358Z,7.43
2018-08-19T06:32:55.501Z,7.13
2018-08-19T06:35:23.689Z,9.97
2018-08-19T06:37:51.833Z,7.60
2018-08-19T06:40:21.202Z,18.33
2018-08-19T06:42:49.358Z,8.67
2018-08-19T06:45:17.526Z,9.03
2018-08-19T06:47:45.687Z,9.10
2018-08-19T06:50:24.090Z,7.70
2018-08-19T06:52:52.590Z,7.70
2018-08-19T06:55:20.826Z,9.17
2018-08-19T06:57:49.009Z,9.53
2018-08-19T07:00:22.711Z,6.97
2018-08-19T07:02:50.876Z,9.47
2018-08-19T07:05:19.026Z,10.67
2018-08-19T07:07:47.197Z,9.80
2018-08-19T07:10:23.059Z,12.20
2018-08-19T07:12:55.699Z,9.23
2018-08-19T07:15:23.853Z,9.37
2018-08-19T07:17:52.014Z,10.33
2018-08-19T07:20:20.173Z,10.47
2018-08-19T07:22:48.341Z,10.23
2018-08-19T07:25:16.486Z,8.80
2018-08-19T07:27:44.640Z,9.37
2018-08-19T07:30:12.799Z,9.23
2018-08-19T07:32:40.982Z,10.07
2018-08-19T07:35:09.162Z,9.03
2018-08-19T07:37:37.322Z,7.70
2018-08-19T07:40:06.418Z,7.10
2018-08-19T07:42:34.605Z,7.37
2018-08-19T07:45:02.765Z,6.23
2018-08-19T07:47:30.930Z,8.63
2018-08-19T07:49:59.091Z,5.57
2018-08-19T07:52:27.367Z,8.20
2018-08-19T07:54:55.587Z,6.93
2018-08-19T07:57:26.757Z,8.93
2018-08-19T07:59:54.981Z,6.27
2018-08-19T08:02:25.441Z,7.00
2018-08-19T08:04:53.650Z,7.07
2018-08-19T08:07:21.841Z,6.70
2018-08-19T08:09:50.114Z,7.17
2018-08-19T08:12:18.306Z,7.80
2018-08-19T08:14:50.953Z,8.57
2018-08-19T08:17:19.318Z,7.90
2018-08-19T08:19:52.705Z,6.00
2018-08-19T08:22:21.022Z,7.23
2018-08-19T08:24:49.189Z,6.43
2018-08-19T08:27:17.359Z,5.10
2018-08-19T08:29:45.590Z,5.97
2018-08-19T08:32:13.746Z,6.00
2018-08-19T08:34:41.894Z,5.47
2018-08-19T08:37:11.742Z,6.33
2018-08-19T08:39:39.887Z,5.17
2018-08-19T08:42:08.038Z,5.20
2018-08-19T08:44:36.228Z,4.97
2018-08-19T08:47:07.027Z,5.43
2018-08-19T08:49:40.581Z,5.40
2018-08-19T08:52:30.482Z,5.87
2018-08-19T08:55:01.041Z,5.10
2018-08-19T08:57:29.296Z,6.80
2018-08-19T08:59:57.495Z,6.83
2018-08-19T09:02:25.678Z,7.83
2018-08-19T09:04:55.085Z,5.93
2018-08-19T09:07:23.238Z,9.00
2018-08-19T09:09:51.588Z,8.67
2018-08-19T09:12:29.902Z,5.33
2018-08-19T09:14:58.054Z,6.83
2018-08-19T09:17:26.195Z,7.37
2018-08-19T09:19:54.355Z,6.63
2018-08-19T09:22:22.550Z,6.53
2018-08-19T09:24:50.707Z,4.30
2018-08-19T09:27:18.964Z,4.70
2018-08-19T09:29:47.126Z,8.37
2018-08-19T09:32:15.294Z,5.90
2018-08-19T09:34:43.449Z,8.30
2018-08-19T09:37:11.612Z,5.13
2018-08-19T09:39:39.790Z,6.17
2018-08-19T09:42:11.088Z,6.77
2018-08-19T09:44:39.790Z,7.07
2018-08-19T09:47:08.257Z,5.03
2018-08-19T09:49:36.677Z,6.57
2018-08-19T09:52:05.011Z,5.43
2018-08-19T09:54:35.038Z,8.23
2018-08-19T09:57:03.830Z,8.00
2018-08-19T09:59:32.003Z,6.63
2018-08-19T10:02:01.410Z,6.23
2018-08-19T10:04:29.549Z,6.47
2018-08-19T10:07:07.147Z,6.07
2018-08-19T10:09:35.349Z,8.97
2018-08-19T10:12:03.505Z,7.13
2018-08-19T10:14:32.719Z,6.53
2018-08-19T10:17:00.869Z,5.83
2018-08-19T10:19:29.034Z,6.27
2018-08-19T10:21:57.201Z,6.27
2018-08-19T10:24:30.226Z,8.13
2018-08-19T10:26:58.816Z,5.70
2018-08-19T10:29:27.024Z,7.47
2018-08-19T10:31:56.758Z,5.97
2018-08-19T10:34:29.142Z,6.43
2018-08-19T10:36:57.959Z,6.37
2018-08-19T10:39:26.169Z,6.63
2018-08-19T10:42:29.665Z,6.10
2018-08-19T10:44:57.846Z,5.80
2018-08-19T10:47:25.990Z,9.47
2018-08-19T10:49:59.569Z,6.53
2018-08-19T10:52:29.190Z,7.43
2018-08-19T10:54:58.805Z,7.47
2018-08-19T10:57:26.978Z,6.00
2018-08-19T10:59:57.390Z,6.33
2018-08-19T11:02:26.158Z,6.00
2018-08-19T11:04:56.940Z,6.87
2018-08-19T11:07:25.234Z,6.13
2018-08-19T11:10:20.660Z,7.63
2018-08-19T11:12:51.312Z,6.37
2018-08-19T11:15:40.006Z,6.00
2018-08-19T11:18:44.832Z,9.37
2018-08-19T11:21:13.934Z,8.17
2018-08-19T11:23:43.436Z,8.13
2018-08-19T11:26:11.727Z,8.70
2018-08-19T11:28:48.846Z,6.37
2018-08-19T11:31:23.269Z,5.80
2018-08-19T11:33:52.292Z,9.20
2018-08-19T11:36:21.790Z,9.20
2018-08-19T11:38:51.726Z,7.93
2018-08-19T11:41:20.246Z,6.63
2018-08-19T11:43:49.406Z,8.60
2018-08-19T11:46:17.662Z,6.43
2018-08-19T11:48:46.505Z,5.90
2018-08-19T11:51:14.666Z,8.83
2018-08-19T11:53:42.874Z,6.27
2018-08-19T11:56:11.090Z,6.03
2018-08-19T11:58:42.007Z,6.57
2018-08-19T12:01:15.554Z,6.23
2018-08-19T12:03:56.318Z,6.53
2018-08-19T12:06:25.745Z,6.03
2018-08-19T12:08:55.517Z,6.30
2018-08-19T12:11:33.827Z,5.80
2018-08-19T12:14:12.549Z,5.10
2018-08-19T12:16:47.153Z,7.93
2018-08-19T12:19:19.773Z,6.97
2018-08-19T12:21:52.553Z,5.80
2018-08-19T12:24:26.547Z,5.70
2018-08-19T12:26:59.123Z,7.70
2018-08-19T12:29:31.410Z,8.23
2018-08-19T12:32:09.722Z,7.17
2018-08-19T12:34:42.707Z,8.53
2018-08-19T12:37:12.016Z,5.67
2018-08-19T12:39:40.120Z,5.53
2018-08-19T12:42:08.337Z,5.93
2018-08-19T12:44:36.638Z,6.07
2018-08-19T12:47:25.084Z,6.60
2018-08-19T12:49:56.634Z,7.17
2018-08-19T12:52:26.121Z,5.20
2018-08-19T12:54:59.773Z,5.30
2018-08-19T12:57:27.960Z,7.73
2018-08-19T13:00:21.570Z,5.33
2018-08-19T13:02:51.094Z,5.93
2018-08-19T13:05:19.865Z,5.40
2018-08-19T13:07:48.032Z,7.20
2018-08-19T13:10:16.518Z,7.70
2018-08-19T13:12:50.270Z,5.93
2018-08-19T13:15:18.513Z,5.20
2018-08-19T13:17:46.686Z,5.40
2018-08-19T13:20:14.846Z,6.53
2018-08-19T13:22:49.355Z,5.67
2018-08-19T13:25:18.367Z,5.60
2018-08-19T13:27:46.559Z,6.07
2018-08-19T13:30:14.855Z,6.00
2018-08-19T13:32:43.034Z,7.63
2018-08-19T13:35:11.246Z,8.53
2018-08-19T13:37:39.489Z,5.50
2018-08-19T13:40:09.158Z,7.53
2018-08-19T13:42:37.323Z,5.73
2018-08-19T13:45:10.893Z,5.67
2018-08-19T13:47:40.127Z,6.03
2018-08-19T13:50:08.303Z,6.10
2018-08-19T13:52:36.479Z,5.50
2018-08-19T13:55:06.879Z,5.93
2018-08-19T13:57:35.043Z,5.77
2018-08-19T14:00:03.541Z,7.23
2018-08-19T14:02:31.693Z,5.70
2018-08-19T14:04:59.853Z,7.10
2018-08-19T14:07:28.049Z,5.90
2018-08-19T14:09:56.242Z,5.50
2018-08-19T14:12:24.454Z,5.97
2018-08-19T14:14:52.752Z,7.30
2018-08-19T14:17:20.900Z,6.30
2018-08-19T14:19:49.054Z,6.07
2018-08-19T14:22:17.265Z,8.27
2018-08-19T14:24:45.422Z,5.97
2018-08-19T14:27:13.580Z,6.80
2018-08-19T14:29:41.742Z,5.10
2018-08-19T14:32:25.577Z,6.00
2018-08-19T14:34:53.776Z,5.90
2018-08-19T14:37:21.953Z,6.90
2018-08-19T14:39:50.125Z,5.97
2018-08-19T14:42:18.269Z,6.27
2018-08-19T14:44:46.430Z,6.13
2018-08-19T14:47:14.586Z,6.40
2018-08-19T14:49:42.751Z,6.20
2018-08-19T14:52:10.934Z,6.33
2018-08-19T14:54:39.120Z,5.53
2018-08-19T14:57:07.301Z,7.47
2018-08-19T14:59:35.475Z,5.70
2018-08-19T15:02:03.699Z,6.20
2018-08-19T15:04:31.876Z,5.67
2018-08-19T15:07:00.063Z,6.33
2018-08-19T15:09:34.759Z,6.03
2018-08-19T15:12:10.984Z,5.50
2018-08-19T15:14:39.138Z,6.30
2018-08-19T15:17:08.634Z,7.70
2018-08-19T15:19:40.054Z,6.37
2018-08-19T15:22:08.195Z,6.10
2018-08-19T15:24:36.470Z,6.53
2018-08-19T15:27:04.747Z,6.63
2018-08-19T15:29:32.991Z,5.60
2018-08-19T15:32:02.721Z,5.77
2018-08-19T15:34:30.806Z,5.53
2018-08-19T15:36:58.980Z,5.53
2018-08-19T15:39:27.122Z,7.03
2018-08-19T15:41:55.261Z,5.93
2018-08-19T15:44:23.444Z,5.50
2018-08-19T15:46:51.610Z,5.27
2018-08-19T15:49:20.759Z,6.77
2018-08-19T15:51:49.006Z,6.67
2018-08-19T15:54:17.137Z,5.87
2018-08-19T15:56:45.278Z,5.93
2018-08-19T15:59:13.432Z,6.10
2018-08-19T16:01:41.591Z,5.47
2018-08-19T16:04:17.942Z,5.83
2018-08-19T16:06:49.275Z,6.83
2018-08-19T16:09:19.088Z,6.30
2018-08-19T16:11:47.934Z,5.97
2018-08-19T16:14:22.710Z,5.90
2018-08-19T16:16:50.924Z,5.33
2018-08-19T16:19:19.058Z,7.13
2018-08-19T16:21:49.746Z,6.33
2018-08-19T16:24:17.888Z,5.57
2018-08-19T16:26:46.062Z,6.33
2018-08-19T16:29:14.221Z,6.10
2018-08-19T16:31:42.422Z,5.47
2018-08-19T16:34:10.584Z,5.60
2018-08-19T16:36:38.714Z,9.17
2018-08-19T16:39:09.276Z,6.30
2018-08-19T16:41:37.424Z,9.23
2018-08-19T16:44:05.696Z,6.50
2018-08-19T16:46:33.854Z,5.83
2018-08-19T16:49:02.171Z,5.80
2018-08-19T16:51:30.349Z,5.83
2018-08-19T16:53:58.500Z,6.00
2018-08-19T16:56:26.657Z,5.63
2018-08-19T16:58:55.073Z,5.80
2018-08-19T17:01:23.298Z,7.90
2018-08-19T17:03:51.451Z,6.43
2018-08-19T17:06:19.630Z,5.37
2018-08-19T17:08:47.770Z,7.60
2018-08-19T17:11:16.383Z,5.37
2018-08-19T17:13:44.575Z,5.33
2018-08-19T17:16:12.750Z,5.33
2018-08-19T17:18:40.911Z,7.17
2018-08-19T17:21:09.081Z,6.93
2018-08-19T17:23:37.239Z,7.77
2018-08-19T17:26:12.073Z,5.00
2018-08-19T17:28:40.227Z,5.53
2018-08-19T17:31:08.383Z,5.00
2018-08-19T17:33:36.544Z,5.17
2018-08-19T17:36:04.767Z,5.07
2018-08-19T17:38:35.639Z,6.53
2018-08-19T17:41:04.254Z,5.20
2018-08-19T17:43:37.825Z,6.47
2018-08-19T17:46:15.760Z,4.90
2018-08-19T17:48:44.669Z,5.80
2018-08-19T17:51:25.418Z,5.60
2018-08-19T17:53:53.647Z,5.57
2018-08-19T17:56:21.775Z,7.13
2018-08-19T17:58:50.479Z,5.23
2018-08-19T18:01:18.642Z,5.23
2018-08-19T18:03:46.814Z,5.37
2018-08-19T18:06:15.025Z,6.07
2018-08-19T18:08:48.574Z,8.20
2018-08-19T18:11:16.751Z,5.60
2018-08-19T18:13:44.920Z,6.00
2018-08-19T18:16:13.728Z,6.67
2018-08-19T18:18:41.897Z,8.47
2018-08-19T18:21:10.067Z,8.20
2018-08-19T18:23:38.219Z,6.10
2018-08-19T18:26:06.672Z,6.10
2018-08-19T18:28:34.828Z,6.23
2018-08-19T18:31:09.188Z,7.70
2018-08-19T18:33:39.914Z,5.93
2018-08-19T18:36:08.081Z,6.07
2018-08-19T18:38:36.438Z,7.67
2018-08-19T18:41:04.614Z,5.57
2018-08-19T18:43:32.810Z,5.57
2018-08-19T18:46:01.004Z,6.67
2018-08-19T18:48:29.141Z,7.30
2018-08-19T18:50:57.314Z,6.53
2018-08-19T18:53:26.571Z,5.87
2018-08-19T18:55:54.768Z,5.83
2018-08-19T18:58:22.930Z,5.87
2018-08-19T19:00:56.543Z,6.10
2018-08-19T19:03:24.742Z,6.47
2018-08-19T19:05:52.945Z,8.33
2018-08-19T19:08:21.108Z,7.10
2018-08-19T19:10:55.812Z,5.87
2018-08-19T19:13:24.870Z,7.37
2018-08-19T19:15:53.050Z,6.27
2018-08-19T19:18:21.213Z,6.20
2018-08-19T19:20:54.613Z,6.70
2018-08-19T19:23:41.105Z,7.53
2018-08-19T19:26:10.022Z,6.63
2018-08-19T19:28:38.259Z,7.87
2018-08-19T19:31:12.044Z,7.37
2018-08-19T19:33:40.269Z,6.70
2018-08-19T19:36:12.342Z,7.10
2018-08-19T19:38:46.692Z,8.13
2018-08-19T19:41:14.902Z,9.87
2018-08-19T19:43:43.057Z,9.57
2018-08-19T19:46:11.199Z,7.07
2018-08-19T19:48:39.347Z,13.03
2018-08-19T19:51:07.525Z,10.27
2018-08-19T19:53:35.670Z,10.93
2018-08-19T19:56:10.138Z,8.27
2018-08-19T19:58:38.280Z,6.77
2018-08-19T20:01:06.454Z,8.23
2018-08-19T20:03:38.834Z,7.93
2018-08-19T20:06:06.972Z,8.27
2018-08-19T20:08:35.113Z,6.53
2018-08-19T20:11:03.862Z,6.63
2018-08-19T20:13:32.048Z,7.27
2018-08-19T20:16:00.150Z,7.07
2018-08-19T20:18:28.278Z,7.07
2018-08-19T20:20:56.394Z,7.27
2018-08-19T20:23:25.559Z,8.67
2018-08-19T20:25:54.745Z,10.50
2018-08-19T20:28:22.881Z,7.50
2018-08-19T20:30:51.045Z,9.55
2018-08-19T20:33:24.615Z,8.50
2018-08-19T20:35:53.054Z,8.87
2018-08-19T20:38:21.402Z,8.33
2018-08-19T20:40:49.638Z,8.97
2018-08-19T20:43:21.910Z,7.23
2018-08-19T20:45:50.032Z,7.53
2018-08-19T20:48:19.493Z,9.53
2018-08-19T20:50:48.370Z,9.10
2018-08-19T20:53:16.750Z,7.50
2018-08-19T20:55:44.911Z,8.53
2018-08-19T20:58:13.076Z,11.53
2018-08-19T21:00:41.221Z,7.53
2018-08-19T21:03:09.755Z,7.73
2018-08-19T21:05:38.548Z,7.20
2018-08-19T21:08:12.781Z,7.80
2018-08-19T21:10:42.069Z,8.23
2018-08-19T21:13:11.878Z,7.47
2018-08-19T21:15:43.521Z,8.63
2018-08-19T21:18:11.789Z,6.93
2018-08-19T21:20:40.182Z,7.30
2018-08-19T21:23:08.382Z,7.30
2018-08-19T21:25:46.778Z,7.70
2018-08-19T21:28:15.187Z,6.90
2018-08-19T21:30:43.337Z,7.70
2018-08-19T21:33:11.487Z,7.10
2018-08-19T21:35:45.090Z,9.50
2018-08-19T21:38:13.232Z,7.83
2018-08-19T21:40:41.469Z,7.93
2018-08-19T21:43:09.735Z,7.57
2018-08-19T21:45:38.243Z,8.57
2018-08-19T21:48:09.693Z,8.20
2018-08-19T21:50:37.966Z,7.93
2018-08-19T21:53:09.324Z,8.17
2018-08-19T21:55:38.795Z,11.60
2018-08-19T21:58:07.111Z,9.40
2018-08-19T22:00:38.685Z,7.80
2018-08-19T22:03:16.881Z,10.97
2018-08-19T22:05:45.357Z,8.73
2018-08-19T22:08:13.537Z,9.97
2018-08-19T22:10:44.629Z,7.23
2018-08-19T22:13:12.861Z,11.73
2018-08-19T22:15:42.094Z,9.03
2018-08-19T22:18:13.344Z,6.03
2018-08-19T22:20:51.513Z,7.60
2018-08-19T22:23:19.670Z,6.40
2018-08-19T22:25:47.805Z,8.83
2018-08-19T22:28:15.951Z,7.47
2018-08-19T22:30:44.097Z,8.30
2018-08-19T22:33:12.647Z,7.83
2018-08-19T22:35:40.794Z,7.57
2018-08-19T22:38:14.424Z,6.73
2018-08-19T22:40:42.587Z,5.87
2018-08-19T22:43:10.749Z,6.20
2018-08-19T22:45:38.930Z,7.47
2018-08-19T22:48:07.049Z,6.27
2018-08-19T22:50:35.180Z,6.13
2018-08-19T22:53:03.385Z,8.87
2018-08-19T22:55:31.510Z,6.43
2018-08-19T22:58:04.884Z,6.23
2018-08-19T23:00:33.010Z,5.93
2018-08-19T23:03:01.136Z,9.87
2018-08-19T23:05:29.273Z,6.30
2018-08-19T23:07:57.399Z,6.37
2018-08-19T23:10:25.533Z,5.60
2018-08-19T23:12:53.662Z,5.80
2018-08-19T23:15:33.233Z,5.37
2018-08-19T23:18:01.354Z,5.63
2018-08-19T23:20:29.479Z,6.87
2018-08-19T23:22:57.611Z,5.40
2018-08-19T23:25:25.739Z,6.07
2018-08-19T23:27:53.885Z,5.33
2018-08-19T23:30:22.017Z,6.17
2018-08-19T23:32:50.145Z,6.20
2018-08-19T23:35:18.267Z,6.10
2018-08-19T23:37:46.389Z,6.07
2018-08-19T23:40:14.518Z,5.87
2018-08-19T23:42:42.637Z,5.60
2018-08-19T23:45:10.769Z,5.80
2018-08-19T23:47:38.895Z,6.20
2018-08-19T23:50:07.070Z,6.23
2018-08-19T23:52:35.214Z,6.47
2018-08-19T23:55:03.346Z,6.93
2018-08-19T23:57:31.473Z,5.63
2018-08-19T23:59:59.598Z,7.57
